createdAt,value
2022-11-12T00:01:11.746Z,21.92
2022-11-12T00:03:57.385Z,21.35
2022-11-12T00:06:42.943Z,22.70
2022-11-12T00:09:28.520Z,21.98
2022-11-12T00:12:13.689Z,22.48
2022-11-12T00:14:58.762Z,19.95
2022-11-12T00:17:43.978Z,21.15
2022-11-12T00:20:29.631Z,21.15
2022-11-12T00:23:15.022Z,20.60
2022-11-12T00:26:01.120Z,20.48
2022-11-12T00:28:46.225Z,21.85
2022-11-12T00:31:31.562Z,21.38
2022-11-12T00:34:16.846Z,22.15
2022-11-12T00:37:02.241Z,21.60
2022-11-12T00:39:47.473Z,21.00
2022-11-12T00:42:32.990Z,21.13
2022-11-12T00:45:18.648Z,22.70
2022-11-12T00:48:03.712Z,21.63
2022-11-12T00:50:48.846Z,21.35
2022-11-12T00:53:34.391Z,21.88
2022-11-12T00:56:19.834Z,22.55
2022-11-12T00:59:05.164Z,22.55
2022-11-12T01:01:50.496Z,21.83
2022-11-12T01:04:36.065Z,21.38
2022-11-12T01:07:21.354Z,23.10
2022-11-12T01:10:06.915Z,22.02
2022-11-12T01:12:52.086Z,21.80
2022-11-12T01:15:40.737Z,20.80
2022-11-12T01:18:26.260Z,20.58
2022-11-12T01:21:12.487Z,20.63
2022-11-12T01:23:58.604Z,22.42
2022-11-12T01:26:44.075Z,22.65
2022-11-12T01:29:29.520Z,21.17
2022-11-12T01:32:14.727Z,21.10
2022-11-12T01:35:00.087Z,20.63
2022-11-12T01:37:45.437Z,19.42
2022-11-12T01:40:32.275Z,20.88
2022-11-12T01:43:17.593Z,20.77
2022-11-12T01:46:05.068Z,20.48
2022-11-12T01:48:56.786Z,21.58
2022-11-12T01:51:44.274Z,19.50
2022-11-12T01:54:29.475Z,20.42
2022-11-12T01:57:15.465Z,20.88
2022-11-12T02:00:01.997Z,21.23
2022-11-12T02:02:51.967Z,19.98
2022-11-12T02:05:37.497Z,20.40
2022-11-12T02:08:23.657Z,20.30
2022-11-12T02:11:21.149Z,21.67
2022-11-12T02:14:06.949Z,20.55
2022-11-12T02:16:52.849Z,20.95
2022-11-12T02:19:38.306Z,21.25
2022-11-12T02:22:23.922Z,21.17
2022-11-12T02:25:10.771Z,20.75
2022-11-12T02:27:56.958Z,21.67
2022-11-12T02:30:43.790Z,20.17
2022-11-12T02:33:29.029Z,21.63
2022-11-12T02:36:14.505Z,21.33
2022-11-12T02:38:59.915Z,19.80
2022-11-12T02:41:45.115Z,19.13
2022-11-12T02:44:31.094Z,19.52
2022-11-12T02:47:16.235Z,19.13
2022-11-12T02:50:01.727Z,18.30
2022-11-12T02:52:46.762Z,18.08
2022-11-12T02:55:31.868Z,18.30
2022-11-12T02:58:16.969Z,17.70
2022-11-12T03:01:02.553Z,17.75
2022-11-12T03:03:48.095Z,16.98
2022-11-12T03:06:33.335Z,17.10
2022-11-12T03:09:18.711Z,17.33
2022-11-12T03:12:03.923Z,17.13
2022-11-12T03:14:49.070Z,17.55
2022-11-12T03:17:34.643Z,16.77
2022-11-12T03:20:20.110Z,18.05
2022-11-12T03:23:06.878Z,17.52
2022-11-12T03:25:52.283Z,17.92
2022-11-12T03:28:37.477Z,15.27
2022-11-12T03:31:22.991Z,14.57
2022-11-12T03:34:08.075Z,15.05
2022-11-12T03:36:53.429Z,15.15
2022-11-12T03:39:38.732Z,13.43
2022-11-12T03:42:24.111Z,13.88
2022-11-12T03:45:09.493Z,14.32
2022-11-12T03:47:56.063Z,13.52
2022-11-12T03:50:41.714Z,13.77
2022-11-12T03:53:26.893Z,13.93
2022-11-12T03:56:11.894Z,14.40
2022-11-12T03:58:57.030Z,13.10
2022-11-12T04:01:42.428Z,13.55
2022-11-12T04:04:47.543Z,14.52
2022-11-12T04:07:51.209Z,14.35
2022-11-12T04:10:36.658Z,13.82
2022-11-12T04:13:28.114Z,14.70
2022-11-12T04:16:33.057Z,14.43
2022-11-12T04:19:36.739Z,13.63
2022-11-12T04:22:22.175Z,14.77
2022-11-12T04:25:26.020Z,14.95
2022-11-12T04:28:11.512Z,14.63
2022-11-12T04:30:56.841Z,14.93
2022-11-12T04:33:41.926Z,15.35
2022-11-12T04:36:27.333Z,15.68
2022-11-12T04:39:12.523Z,16.40
2022-11-12T04:42:16.503Z,16.30
2022-11-12T04:45:05.041Z,17.48
2022-11-12T04:47:50.512Z,15.75
2022-11-12T04:50:36.430Z,16.50
2022-11-12T04:53:24.070Z,17.63
2022-11-12T04:56:09.331Z,17.52
2022-11-12T04:58:54.907Z,16.55
2022-11-12T05:01:40.515Z,16.75
2022-11-12T05:04:27.715Z,16.50
2022-11-12T05:07:13.772Z,16.73
2022-11-12T05:09:59.016Z,17.10
2022-11-12T05:12:44.422Z,17.65
2022-11-12T05:15:29.792Z,17.88
2022-11-12T05:18:15.380Z,17.38
2022-11-12T05:21:20.575Z,16.92
2022-11-12T05:24:06.689Z,17.25
2022-11-12T05:26:52.525Z,17.50
2022-11-12T05:29:38.026Z,16.95
2022-11-12T05:32:23.111Z,17.45
2022-11-12T05:35:08.312Z,16.45
2022-11-12T05:37:53.312Z,17.00
2022-11-12T05:40:38.720Z,15.85
2022-11-12T05:43:23.865Z,15.98
2022-11-12T05:46:09.365Z,18.33
2022-11-12T05:48:54.538Z,16.60
2022-11-12T05:51:39.983Z,16.30
2022-11-12T05:54:28.470Z,16.55
2022-11-12T05:57:13.690Z,17.92
2022-11-12T05:59:59.021Z,17.45
2022-11-12T06:02:44.253Z,18.30
2022-11-12T06:05:29.440Z,17.80
2022-11-12T06:08:14.858Z,18.30
2022-11-12T06:11:00.324Z,20.35
2022-11-12T06:13:45.427Z,19.10
2022-11-12T06:16:31.018Z,18.55
2022-11-12T06:19:16.159Z,18.00
2022-11-12T06:22:01.480Z,19.13
2022-11-12T06:24:46.854Z,18.48
2022-11-12T06:27:32.223Z,15.48
2022-11-12T06:30:21.653Z,16.60
2022-11-12T06:33:09.966Z,16.00
2022-11-12T06:36:03.206Z,14.68
2022-11-12T06:38:48.718Z,15.85
2022-11-12T06:41:33.768Z,14.13
2022-11-12T06:44:22.119Z,14.48
2022-11-12T06:47:07.661Z,15.23
2022-11-12T06:49:52.886Z,14.80
2022-11-12T06:52:38.314Z,15.73
2022-11-12T06:55:23.652Z,16.15
2022-11-12T06:58:09.065Z,15.15
2022-11-12T07:00:54.456Z,15.25
2022-11-12T07:03:41.671Z,16.33
2022-11-12T07:06:27.168Z,15.48
2022-11-12T07:09:12.596Z,15.32
2022-11-12T07:11:58.116Z,15.45
2022-11-12T07:14:43.205Z,15.30
2022-11-12T07:17:28.402Z,16.25
2022-11-12T07:20:13.993Z,15.10
2022-11-12T07:23:00.100Z,14.18
2022-11-12T07:25:45.439Z,14.95
2022-11-12T07:28:30.816Z,13.60
2022-11-12T07:31:16.657Z,12.98
2022-11-12T07:34:01.703Z,12.40
2022-11-12T07:36:48.687Z,13.70
2022-11-12T07:39:33.939Z,14.60
2022-11-12T07:42:19.251Z,14.80
2022-11-12T07:45:04.926Z,14.93
2022-11-12T07:47:50.293Z,15.20
2022-11-12T07:50:35.828Z,13.60
2022-11-12T07:53:21.438Z,14.45
2022-11-12T07:56:06.856Z,14.13
2022-11-12T07:58:52.288Z,14.57
2022-11-12T08:01:38.669Z,15.38
2022-11-12T08:04:24.020Z,14.25
2022-11-12T08:07:09.938Z,15.85
2022-11-12T08:09:55.452Z,14.30
2022-11-12T08:12:40.599Z,14.02
2022-11-12T08:15:26.203Z,13.00
2022-11-12T08:18:11.421Z,12.80
2022-11-12T08:21:00.498Z,12.23
2022-11-12T08:23:46.378Z,13.95
2022-11-12T08:26:32.343Z,13.63
2022-11-12T08:29:18.418Z,13.77
2022-11-12T08:32:03.709Z,13.82
2022-11-12T08:34:49.073Z,15.23
2022-11-12T08:37:34.394Z,14.20
2022-11-12T08:40:19.606Z,14.50
2022-11-12T08:43:06.093Z,14.00
2022-11-12T08:45:51.229Z,16.30
2022-11-12T08:48:36.828Z,15.68
2022-11-12T08:51:22.053Z,16.55
2022-11-12T08:54:07.317Z,16.30
2022-11-12T08:56:52.889Z,16.25
2022-11-12T08:59:38.070Z,16.65
2022-11-12T09:02:23.122Z,17.27
2022-11-12T09:05:08.607Z,15.73
2022-11-12T09:08:00.654Z,16.15
2022-11-12T09:10:46.088Z,16.17
2022-11-12T09:13:31.491Z,17.00
2022-11-12T09:16:18.136Z,16.58
2022-11-12T09:19:03.679Z,15.85
2022-11-12T09:21:49.443Z,15.43
2022-11-12T09:24:34.702Z,14.75
2022-11-12T09:27:20.032Z,14.82
2022-11-12T09:30:06.626Z,15.20
2022-11-12T09:32:56.794Z,16.00
2022-11-12T09:35:42.743Z,15.50
2022-11-12T09:38:28.766Z,16.63
2022-11-12T09:41:17.575Z,15.82
2022-11-12T09:44:04.649Z,16.63
2022-11-12T09:46:50.011Z,17.83
2022-11-12T09:49:41.022Z,15.68
2022-11-12T09:52:28.252Z,16.38
2022-11-12T09:55:18.951Z,17.20
2022-11-12T09:58:09.504Z,16.23
2022-11-12T10:00:56.589Z,16.60
2022-11-12T10:03:57.442Z,17.08
2022-11-12T10:06:57.604Z,17.10
2022-11-12T10:09:46.314Z,14.95
2022-11-12T10:12:34.291Z,16.08
2022-11-12T10:15:54.597Z,15.35
2022-11-12T10:18:58.618Z,15.68
2022-11-12T10:21:51.481Z,17.23
2022-11-12T10:24:38.862Z,17.20
2022-11-12T10:27:27.571Z,18.90
2022-11-12T10:30:19.922Z,17.13
2022-11-12T10:33:05.310Z,16.92
2022-11-12T10:35:51.410Z,17.00
2022-11-12T10:38:37.950Z,15.70
2022-11-12T10:41:24.921Z,17.85
2022-11-12T10:44:17.370Z,17.20
2022-11-12T10:47:21.222Z,17.67
2022-11-12T10:50:06.206Z,18.45
2022-11-12T10:52:57.489Z,17.38
2022-11-12T10:55:56.606Z,17.17
2022-11-12T10:58:41.911Z,17.00
2022-11-12T11:01:28.104Z,17.15
2022-11-12T11:04:17.136Z,16.05
2022-11-12T11:07:17.269Z,16.45
2022-11-12T11:10:03.180Z,16.58
2022-11-12T11:12:48.370Z,16.30
2022-11-12T11:15:33.420Z,16.40
2022-11-12T11:18:18.715Z,16.80
2022-11-12T11:21:22.618Z,16.73
2022-11-12T11:24:22.444Z,15.35
2022-11-12T11:27:33.797Z,16.45
2022-11-12T11:30:20.567Z,15.40
2022-11-12T11:33:29.078Z,17.58
2022-11-12T11:36:14.625Z,15.77
2022-11-12T11:39:02.532Z,15.95
2022-11-12T11:41:54.564Z,15.45
2022-11-12T11:44:59.441Z,16.92
2022-11-12T11:48:00.692Z,14.60
2022-11-12T11:50:55.989Z,15.13
2022-11-12T11:53:44.199Z,15.10
2022-11-12T11:56:32.068Z,16.42
2022-11-12T11:59:24.316Z,15.07
2022-11-12T12:02:15.356Z,15.05
2022-11-12T12:05:00.434Z,14.55
2022-11-12T12:08:06.218Z,16.23
2022-11-12T12:11:12.605Z,15.32
2022-11-12T12:13:57.867Z,15.15
2022-11-12T12:16:45.790Z,16.58
2022-11-12T12:19:49.457Z,14.90
2022-11-12T12:22:46.526Z,14.85
2022-11-12T12:25:34.348Z,15.20
2022-11-12T12:28:41.773Z,15.43
2022-11-12T12:31:31.246Z,16.17
2022-11-12T12:34:24.918Z,15.43
2022-11-12T12:37:21.929Z,15.68
2022-11-12T12:40:19.777Z,15.18
2022-11-12T12:43:10.695Z,16.05
2022-11-12T12:45:57.456Z,15.10
2022-11-12T12:48:43.998Z,16.00
2022-11-12T12:51:31.160Z,15.85
2022-11-12T12:54:45.902Z,16.88
2022-11-12T12:57:40.747Z,14.52
2022-11-12T13:00:31.843Z,14.85
2022-11-12T13:03:35.549Z,15.45
2022-11-12T13:06:23.675Z,15.32
2022-11-12T13:09:15.116Z,15.65
2022-11-12T13:12:06.043Z,15.52
2022-11-12T13:14:52.310Z,15.20
2022-11-12T13:17:45.288Z,15.52
2022-11-12T13:20:37.833Z,15.05
2022-11-12T13:24:01.878Z,16.13
2022-11-12T13:26:52.211Z,15.38
2022-11-12T13:29:38.086Z,15.65
2022-11-12T13:32:42.268Z,14.88
2022-11-12T13:35:32.269Z,15.60
2022-11-12T13:38:17.713Z,14.52
2022-11-12T13:41:02.833Z,15.32
2022-11-12T13:43:48.497Z,15.90
2022-11-12T13:46:33.927Z,15.07
2022-11-12T13:49:19.580Z,15.80
2022-11-12T13:52:05.754Z,15.13
2022-11-12T13:55:07.538Z,15.52
2022-11-12T13:57:53.630Z,14.93
2022-11-12T14:00:38.901Z,15.32
2022-11-12T14:03:25.873Z,15.48
2022-11-12T14:06:19.498Z,15.65
2022-11-12T14:09:04.873Z,15.75
2022-11-12T14:11:52.849Z,15.20
2022-11-12T14:14:56.541Z,15.57
2022-11-12T14:17:53.788Z,14.90
2022-11-12T14:20:40.323Z,15.52
2022-11-12T14:23:26.120Z,14.07
2022-11-12T14:26:12.212Z,15.75
2022-11-12T14:28:57.596Z,15.32
2022-11-12T14:31:42.678Z,14.63
2022-11-12T14:34:29.229Z,14.98
2022-11-12T14:37:37.285Z,14.98
2022-11-12T14:40:28.338Z,14.13
2022-11-12T14:43:32.076Z,13.15
2022-11-12T14:46:20.244Z,14.32
2022-11-12T14:49:07.926Z,14.95
2022-11-12T14:51:54.872Z,13.80
2022-11-12T14:54:41.663Z,14.10
2022-11-12T14:57:28.303Z,14.35
2022-11-12T15:00:17.878Z,14.80
2022-11-12T15:03:03.846Z,14.43
2022-11-12T15:05:57.325Z,15.30
2022-11-12T15:08:42.718Z,13.80
2022-11-12T15:11:36.990Z,13.57
2022-11-12T15:14:24.440Z,12.90
2022-11-12T15:17:39.145Z,13.43
2022-11-12T15:20:24.498Z,14.43
2022-11-12T15:23:19.202Z,13.73
2022-11-12T15:26:04.564Z,14.45
2022-11-12T15:29:03.222Z,13.82
2022-11-12T15:31:53.392Z,14.05
2022-11-12T15:34:38.663Z,13.95
2022-11-12T15:37:27.938Z,13.75
2022-11-12T15:40:18.722Z,13.35
2022-11-12T15:43:04.611Z,13.88
2022-11-12T15:45:54.314Z,14.30
2022-11-12T15:48:39.718Z,12.90
2022-11-12T15:51:25.120Z,12.43
2022-11-12T15:54:10.515Z,13.80
2022-11-12T15:56:56.009Z,12.75
2022-11-12T15:59:41.311Z,13.25
2022-11-12T16:02:26.732Z,12.18
2022-11-12T16:05:15.410Z,10.13
2022-11-12T16:08:00.386Z,9.52
2022-11-12T16:10:46.480Z,9.55
2022-11-12T16:13:33.222Z,9.07
2022-11-12T16:16:18.410Z,9.30
2022-11-12T16:19:03.844Z,9.70
2022-11-12T16:21:49.731Z,9.30
2022-11-12T16:24:34.963Z,9.40
2022-11-12T16:27:20.612Z,10.27
2022-11-12T16:30:19.961Z,9.82
2022-11-12T16:33:05.531Z,9.77
2022-11-12T16:35:50.803Z,9.85
2022-11-12T16:38:36.376Z,9.70
2022-11-12T16:41:21.899Z,9.93
2022-11-12T16:44:07.124Z,9.73
2022-11-12T16:46:52.191Z,9.50
2022-11-12T16:49:42.836Z,10.05
2022-11-12T16:52:28.209Z,10.52
2022-11-12T16:55:13.528Z,9.60
2022-11-12T16:57:58.531Z,10.73
2022-11-12T17:00:45.803Z,11.57
2022-11-12T17:03:30.956Z,10.35
2022-11-12T17:06:16.468Z,10.68
2022-11-12T17:09:01.620Z,10.15
2022-11-12T17:11:47.033Z,10.95
2022-11-12T17:14:32.415Z,9.43
2022-11-12T17:17:17.406Z,10.43
2022-11-12T17:20:02.947Z,11.35
2022-11-12T17:22:47.964Z,10.77
2022-11-12T17:25:33.305Z,11.13
2022-11-12T17:28:18.558Z,11.80
2022-11-12T17:31:17.181Z,11.23
2022-11-12T17:34:04.397Z,11.48
2022-11-12T17:36:49.756Z,12.23
2022-11-12T17:39:34.954Z,11.60
2022-11-12T17:42:20.348Z,11.82
2022-11-12T17:45:05.897Z,12.32
2022-11-12T17:47:51.179Z,13.13
2022-11-12T17:50:38.920Z,12.02
2022-11-12T17:53:24.695Z,11.57
2022-11-12T17:56:11.506Z,10.63
2022-11-12T17:58:56.697Z,11.05
2022-11-12T18:01:42.177Z,10.85
2022-11-12T18:04:31.060Z,10.82
2022-11-12T18:07:16.323Z,11.88
2022-11-12T18:10:01.726Z,11.75
2022-11-12T18:12:46.987Z,12.75
2022-11-12T18:15:32.495Z,12.50
2022-11-12T18:18:18.742Z,12.80
2022-11-12T18:21:04.759Z,12.52
2022-11-12T18:23:49.981Z,12.65
2022-11-12T18:26:35.275Z,13.13
2022-11-12T18:29:20.467Z,12.85
2022-11-12T18:32:05.749Z,13.07
2022-11-12T18:34:51.975Z,13.07
2022-11-12T18:37:37.173Z,13.13
2022-11-12T18:40:23.034Z,13.05
2022-11-12T18:43:08.114Z,12.75
2022-11-12T18:45:54.403Z,14.27
2022-11-12T18:48:40.386Z,12.98
2022-11-12T18:51:25.746Z,14.35
2022-11-12T18:54:10.823Z,13.55
2022-11-12T18:56:56.097Z,15.35
2022-11-12T18:59:41.356Z,16.33
2022-11-12T19:02:26.565Z,16.20
2022-11-12T19:05:12.089Z,15.30
2022-11-12T19:07:57.352Z,15.25
2022-11-12T19:10:43.159Z,15.98
2022-11-12T19:13:28.960Z,14.40
2022-11-12T19:16:17.047Z,15.02
2022-11-12T19:19:02.121Z,13.68
2022-11-12T19:21:48.835Z,15.18
2022-11-12T19:24:34.831Z,14.88
2022-11-12T19:27:20.352Z,16.55
2022-11-12T19:30:07.054Z,15.73
2022-11-12T19:32:52.827Z,16.27
2022-11-12T19:35:40.975Z,15.57
2022-11-12T19:38:28.021Z,16.25
2022-11-12T19:41:19.784Z,16.75
2022-11-12T19:44:05.962Z,17.95
2022-11-12T19:46:51.477Z,17.20
2022-11-12T19:49:36.446Z,17.13
2022-11-12T19:52:22.489Z,16.63
2022-11-12T19:55:07.803Z,17.52
2022-11-12T19:57:53.251Z,17.45
2022-11-12T20:00:38.737Z,16.60
2022-11-12T20:03:26.251Z,17.23
2022-11-12T20:06:18.285Z,18.55
2022-11-12T20:09:08.757Z,17.75
2022-11-12T20:11:54.207Z,19.17
2022-11-12T20:14:39.311Z,19.85
2022-11-12T20:17:24.781Z,20.50
2022-11-12T20:20:10.425Z,19.20
2022-11-12T20:22:55.936Z,20.75
2022-11-12T20:25:41.374Z,19.52
2022-11-12T20:28:26.623Z,19.35
2022-11-12T20:31:15.942Z,19.42
2022-11-12T20:34:01.969Z,19.50
2022-11-12T20:36:47.398Z,21.75
2022-11-12T20:39:32.655Z,18.45
2022-11-12T20:42:17.926Z,19.90
2022-11-12T20:45:02.989Z,19.90
2022-11-12T20:47:48.268Z,19.20
2022-11-12T20:50:33.320Z,19.75
2022-11-12T20:53:18.362Z,18.08
2022-11-12T20:56:05.887Z,17.67
2022-11-12T20:58:51.348Z,18.35
2022-11-12T21:01:36.596Z,17.30
2022-11-12T21:04:21.811Z,17.90
2022-11-12T21:07:07.514Z,17.63
2022-11-12T21:09:53.086Z,17.70
2022-11-12T21:12:38.547Z,17.58
2022-11-12T21:15:23.641Z,16.83
2022-11-12T21:18:08.725Z,18.02
2022-11-12T21:21:21.347Z,18.60
2022-11-12T21:24:06.879Z,14.93
2022-11-12T21:26:52.053Z,14.63
2022-11-12T21:29:37.324Z,15.00
2022-11-12T21:32:22.577Z,15.70
2022-11-12T21:35:08.084Z,14.55
2022-11-12T21:37:53.240Z,14.90
2022-11-12T21:40:38.671Z,14.45
2022-11-12T21:43:23.994Z,13.52
2022-11-12T21:46:10.266Z,14.25
2022-11-12T21:48:56.256Z,12.88
2022-11-12T21:51:41.811Z,13.00
2022-11-12T21:54:27.380Z,11.82
2022-11-12T21:57:17.618Z,13.00
2022-11-12T22:00:34.654Z,12.82
2022-11-12T22:03:10.085Z,13.00
2022-11-12T22:05:55.348Z,12.60
2022-11-12T22:08:41.485Z,12.98
2022-11-12T22:11:27.288Z,11.88
2022-11-12T22:14:12.633Z,12.68
2022-11-12T22:16:57.714Z,11.27
2022-11-12T22:19:43.147Z,12.40
2022-11-12T22:22:28.582Z,12.10
2022-11-12T22:25:13.955Z,11.45
2022-11-12T22:27:59.145Z,13.00
2022-11-12T22:30:44.537Z,12.18
2022-11-12T22:33:29.720Z,12.30
2022-11-12T22:36:16.124Z,10.73
2022-11-12T22:39:01.386Z,10.70
2022-11-12T22:41:46.865Z,11.70
2022-11-12T22:44:31.977Z,10.60
2022-11-12T22:47:17.063Z,9.43
2022-11-12T22:50:02.173Z,9.82
2022-11-12T22:52:50.096Z,9.00
2022-11-12T22:55:35.426Z,9.73
2022-11-12T22:58:20.886Z,9.10
2022-11-12T23:01:07.087Z,11.32
2022-11-12T23:03:54.916Z,9.80
2022-11-12T23:06:40.154Z,9.52
2022-11-12T23:09:25.605Z,7.68
2022-11-12T23:12:11.052Z,9.43
2022-11-12T23:14:56.482Z,9.20
2022-11-12T23:17:41.727Z,9.20
2022-11-12T23:20:27.088Z,9.40
2022-11-12T23:23:12.216Z,10.15
2022-11-12T23:26:11.494Z,9.82
2022-11-12T23:28:57.268Z,9.30
2022-11-12T23:31:42.562Z,8.43
2022-11-12T23:34:28.077Z,9.48
2022-11-12T23:37:13.411Z,9.27
2022-11-12T23:39:58.777Z,9.60
2022-11-12T23:42:44.009Z,8.55
2022-11-12T23:45:29.505Z,8.75
2022-11-12T23:48:14.821Z,8.48
2022-11-12T23:51:04.587Z,9.20
2022-11-12T23:53:49.688Z,7.85
2022-11-12T23:56:34.854Z,8.98
2022-11-12T23:59:20.230Z,9.07
